Map

Track Data

SID SEASON NUMBER BASIN SUBBASIN NAME ISO_TIME NATURE LAT LON WMO_WIND WMO_PRES WMO_AGENCY TRACK_TYPE DIST2LAND LANDFALL IFLAG USA_AGENCY USA_ATCF_ID USA_LAT USA_LON USA_RECORD USA_STATUS USA_WIND USA_PRES USA_SSHS USA_R34_NE USA_R34_SE USA_R34_SW USA_R34_NW USA_R50_NE USA_R50_SE USA_R50_SW USA_R50_NW USA_R64_NE USA_R64_SE USA_R64_SW USA_R64_NW USA_POCI USA_ROCI USA_RMW USA_EYE TOKYO_LAT TOKYO_LON TOKYO_GRADE TOKYO_WIND TOKYO_PRES TOKYO_R50_DIR TOKYO_R50_LONG TOKYO_R50_SHORT TOKYO_R30_DIR TOKYO_R30_LONG TOKYO_R30_SHORT TOKYO_LAND CMA_LAT CMA_LON CMA_CAT CMA_WIND CMA_PRES HKO_LAT HKO_LON HKO_CAT HKO_WIND HKO_PRES NEWDELHI_LAT NEWDELHI_LON NEWDELHI_GRADE NEWDELHI_WIND NEWDELHI_PRES NEWDELHI_CI NEWDELHI_DP NEWDELHI_POCI REUNION_LAT REUNION_LON REUNION_TYPE REUNION_WIND REUNION_PRES REUNION_TNUM REUNION_CI REUNION_RMW REUNION_R34_NE REUNION_R34_SE REUNION_R34_SW REUNION_R34_NW REUNION_R50_NE REUNION_R50_SE REUNION_R50_SW REUNION_R50_NW REUNION_R64_NE REUNION_R64_SE REUNION_R64_SW REUNION_R64_NW BOM_LAT BOM_LON BOM_TYPE BOM_WIND BOM_PRES BOM_TNUM BOM_CI BOM_RMW BOM_R34_NE BOM_R34_SE BOM_R34_SW BOM_R34_NW BOM_R50_NE BOM_R50_SE BOM_R50_SW BOM_R50_NW BOM_R64_NE BOM_R64_SE BOM_R64_SW BOM_R64_NW BOM_ROCI BOM_POCI BOM_EYE BOM_POS_METHOD BOM_PRES_METHOD NADI_LAT NADI_LON NADI_CAT NADI_WIND NADI_PRES WELLINGTON_LAT WELLINGTON_LON WELLINGTON_WIND WELLINGTON_PRES DS824_LAT DS824_LON DS824_STAGE DS824_WIND DS824_PRES TD9636_LAT TD9636_LON TD9636_STAGE TD9636_WIND TD9636_PRES TD9635_LAT TD9635_LON TD9635_WIND TD9635_PRES TD9635_ROCI NEUMANN_LAT NEUMANN_LON NEUMANN_CLASS NEUMANN_WIND NEUMANN_PRES MLC_LAT MLC_LON MLC_CLASS MLC_WIND MLC_PRES USA_GUST BOM_GUST BOM_GUST_PER REUNION_GUST REUNION_GUST_PER USA_SEAHGT USA_SEARAD_NE USA_SEARAD_SE USA_SEARAD_SW USA_SEARAD_NW STORM_SPEED STORM_DIR
1920265N10147 1920 42 WP MM NOT_NAMED 1920-09-21 10:00:00 NR 10.1000 147.300 main 1367 1367 __________O___ -1 10.1000 147.300 7 12 284
1920265N10147 1920 42 WP MM NOT_NAMED 1920-09-21 12:00:00 NR 10.2018 146.900 main 1378 1378 __________P___ -1 10.2018 146.900 7 12 285
1920265N10147 1920 42 WP MM NOT_NAMED 1920-09-21 15:00:00 NR 10.3534 146.305 main 1401 1401 __________P___ -1 10.3534 146.305 7 12 285
1920265N10147 1920 42 WP MM NOT_NAMED 1920-09-21 18:00:00 NR 10.5033 145.728 main 1415 1415 __________P___ -1 10.5033 145.728 7 12 285
1920265N10147 1920 42 WP MM NOT_NAMED 1920-09-21 21:00:00 NR 10.6512 145.176 main 1442 1443 __________P___ -1 10.6512 145.176 7 11 285
1920265N10147 1920 42 WP MM NOT_NAMED 1920-09-21 22:00:00 NR 10.7000 145.000 main 1445 1445 __________O___ -1 10.7000 145.000 3 11 286
1920265N10147 1920 42 WP MM NOT_NAMED 1920-09-22 00:00:00 NR 10.7970 144.660 main 1460 1462 __________P___ -1 10.7970 144.660 3 10 287
1920265N10147 1920 42 WP MM NOT_NAMED 1920-09-22 03:00:00 NR 10.9428 144.176 main 1480 1493 __________P___ -1 10.9428 144.176 3 10 288
1920265N10147 1920 42 WP MM NOT_NAMED 1920-09-22 06:00:00 NR 11.0916 143.711 main 1513 1513 __________P___ -1 11.0916 143.711 3 10 289
1920265N10147 1920 42 WP MM NOT_NAMED 1920-09-22 09:00:00 NR 11.2465 143.253 main 1534 1543 __________P___ -1 11.2465 143.253 3 10 289
1920265N10147 1920 42 WP MM NOT_NAMED 1920-09-22 10:00:00 NR 11.3000 143.100 main 1543 1539 __________O___ -1 11.3000 143.100 4 10 290
1920265N10147 1920 42 WP MM NOT_NAMED 1920-09-22 12:00:00 NR 11.4080 142.796 main 1542 1539 __________P___ -1 11.4080 142.796 4 10 290
1920265N10147 1920 42 WP MM NOT_NAMED 1920-09-22 15:00:00 NR 11.5764 142.341 main 1546 1543 __________P___ -1 11.5764 142.341 4 10 291
1920265N10147 1920 42 WP MM NOT_NAMED 1920-09-22 18:00:00 NR 11.7527 141.872 main 1556 1546 __________P___ -1 11.7527 141.872 4 10 291
1920265N10147 1920 42 WP MM NOT_NAMED 1920-09-22 21:00:00 NR 11.9369 141.375 main 1547 1543 __________P___ -1 11.9369 141.375 4 11 291
1920265N10147 1920 42 WP MM NOT_NAMED 1920-09-22 22:00:00 NR 12.0000 141.200 main 1549 1543 __________O___ -1 12.0000 141.200 4 11 290
1920265N10147 1920 42 WP MM NOT_NAMED 1920-09-23 00:00:00 NR 12.1303 140.826 main 1543 1542 __________P___ -1 12.1303 140.826 4 12 289
1920265N10147 1920 42 WP MM NOT_NAMED 1920-09-23 03:00:00 NR 12.3320 140.233 main 1542 1510 __________P___ -1 12.3320 140.233 4 12 289
1920265N10147 1920 42 WP MM NOT_NAMED 1920-09-23 06:00:00 NR 12.5358 139.619 main 1510 1449 __________P___ -1 12.5358 139.619 4 13 289
1920265N10147 1920 42 WP MM NOT_NAMED 1920-09-23 09:00:00 NR 12.7354 139.003 main 1449 1429 __________P___ -1 12.7354 139.003 4 13 288
1920265N10147 1920 42 WP MM NOT_NAMED 1920-09-23 10:00:00 NR 12.8000 138.800 main 1429 1387 __________O___ -1 12.8000 138.800 4 12 288
1920265N10147 1920 42 WP MM NOT_NAMED 1920-09-23 12:00:00 NR 12.9274 138.403 main 1387 1326 __________P___ -1 12.9274 138.403 4 12 288
1920265N10147 1920 42 WP MM NOT_NAMED 1920-09-23 15:00:00 NR 13.1125 137.814 main 1326 1266 __________P___ -1 13.1125 137.814 4 12 288
1920265N10147 1920 42 WP MM NOT_NAMED 1920-09-23 18:00:00 NR 13.2876 137.237 main 1266 1215 __________P___ -1 13.2876 137.237 4 12 287
1920265N10147 1920 42 WP MM NOT_NAMED 1920-09-23 21:00:00 NR 13.4495 136.680 main 1215 1196 __________P___ -1 13.4495 136.680 4 11 286
1920265N10147 1920 42 WP MM NOT_NAMED 1920-09-23 22:00:00 NR 13.5000 136.500 main 1196 1167 __________O___ -1 13.5000 136.500 4 10 287
1920265N10147 1920 42 WP MM NOT_NAMED 1920-09-24 00:00:00 NR 13.5853 136.209 main 1167 1128 __________P___ -1 13.5853 136.209 4 9 286
1920265N10147 1920 42 WP MM NOT_NAMED 1920-09-24 03:00:00 NR 13.7011 135.793 main 1128 1077 __________P___ -1 13.7011 135.793 4 9 285
1920265N10147 1920 42 WP MM NOT_NAMED 1920-09-24 06:00:00 NR 13.8171 135.330 main 1077 1015 __________P___ -1 13.8171 135.330 4 11 284
1920265N10147 1920 42 WP MM NOT_NAMED 1920-09-24 09:00:00 NR 13.9495 134.739 main 1015 995 __________P___ -1 13.9495 134.739 4 12 283
1920265N10147 1920 42 WP MM NOT_NAMED 1920-09-24 10:00:00 NR 14.0000 134.500 main 995 923 __________O___ -1 14.0000 134.500 4 18 282
1920265N10147 1920 42 WP MM NOT_NAMED 1920-09-24 12:00:00 NR 14.1271 133.840 main 923 814 __________P___ -1 14.1271 133.840 4 21 281
1920265N10147 1920 42 WP MM NOT_NAMED 1920-09-24 15:00:00 NR 14.3355 132.702 main 814 698 __________P___ -1 14.3355 132.702 4 23 281
1920265N10147 1920 42 WP MM NOT_NAMED 1920-09-24 18:00:00 NR 14.5463 131.531 main 698 609 __________P___ -1 14.5463 131.531 4 22 281
1920265N10147 1920 42 WP MM NOT_NAMED 1920-09-24 21:00:00 NR 14.7413 130.490 main 609 585 __________P___ -1 14.7413 130.490 4 20 281
1920265N10147 1920 42 WP MM NOT_NAMED 1920-09-24 22:00:00 NR 14.8000 130.200 main 585 554 __________O___ -1 14.8000 130.200 4 14 284
1920265N10147 1920 42 WP MM NOT_NAMED 1920-09-25 00:00:00 NR 14.9032 129.806 main 554 525 __________P___ -1 14.9032 129.806 4 10 287
1920265N10147 1920 42 WP MM NOT_NAMED 1920-09-25 03:00:00 NR 15.0415 129.398 main 525 514 __________P___ -1 15.0415 129.398 4 7 291
1920265N10147 1920 42 WP MM NOT_NAMED 1920-09-25 06:00:00 NR 15.1624 129.124 main 514 497 __________P___ -1 15.1624 129.124 4 5 295
1920265N10147 1920 42 WP MM NOT_NAMED 1920-09-25 09:00:00 NR 15.2680 128.888 main 505 497 __________P___ -1 15.2680 128.888 4 5 294
1920265N10147 1920 42 WP MM NOT_NAMED 1920-09-25 10:00:00 NR 15.3000 128.800 main 497 468 __________O___ -1 15.3000 128.800 4 7 284
1920265N10147 1920 42 WP MM NOT_NAMED 1920-09-25 12:00:00 NR 15.3537 128.524 main 472 432 __________P___ -1 15.3537 128.524 4 8 280
1920265N10147 1920 42 WP MM NOT_NAMED 1920-09-25 15:00:00 NR 15.4215 128.096 main 432 397 __________P___ -1 15.4215 128.096 4 8 279
1920265N10147 1920 42 WP MM NOT_NAMED 1920-09-25 18:00:00 NR 15.4875 127.681 main 397 365 __________P___ -1 15.4875 127.681 4 8 281
1920265N10147 1920 42 WP MM NOT_NAMED 1920-09-25 21:00:00 NR 15.5675 127.309 main 365 356 __________P___ -1 15.5675 127.309 4 7 284
1920265N10147 1920 42 WP MM NOT_NAMED 1920-09-25 22:00:00 NR 15.6000 127.200 main 356 344 __________O___ -1 15.6000 127.200 4 6 291
1920265N10147 1920 42 WP MM NOT_NAMED 1920-09-26 00:00:00 NR 15.6774 127.010 main 344 334 __________P___ -1 15.6774 127.010 4 6 298
1920265N10147 1920 42 WP MM NOT_NAMED 1920-09-26 03:00:00 NR 15.8125 126.776 main 334 325 __________P___ -1 15.8125 126.776 4 5 306
1920265N10147 1920 42 WP MM NOT_NAMED 1920-09-26 06:00:00 NR 15.9676 126.592 main 333 325 __________P___ -1 15.9676 126.592 4 5 316
1920265N10147 1920 42 WP MM NOT_NAMED 1920-09-26 09:00:00 NR 16.1395 126.443 main 325 333 __________P___ -1 16.1395 126.443 4 4 321
1920265N10147 1920 42 WP MM NOT_NAMED 1920-09-26 10:00:00 NR 16.2000 126.400 main 333 326 __________O___ -1 16.2000 126.400 4 4 307
1920265N10147 1920 42 WP MM NOT_NAMED 1920-09-26 12:00:00 NR 16.2641 126.269 main 335 321 __________P___ -1 16.2641 126.269 4 4 301
1920265N10147 1920 42 WP MM NOT_NAMED 1920-09-26 15:00:00 NR 16.3717 126.097 main 330 324 __________P___ -1 16.3717 126.097 4 4 316
1920265N10147 1920 42 WP MM NOT_NAMED 1920-09-26 18:00:00 NR 16.5485 125.987 main 334 343 __________P___ -1 16.5485 125.987 4 5 347
1920265N10147 1920 42 WP MM NOT_NAMED 1920-09-26 21:00:00 NR 16.8570 125.976 main 372 372 __________P___ -1 16.8570 125.976 4 7 0
1920265N10147 1920 42 WP MM NOT_NAMED 1920-09-26 22:00:00 NR 17.0000 126.000 main 372 372 __________O___ -1 17.0000 126.000 4 11 11
1920265N10147 1920 42 WP MM NOT_NAMED 1920-09-27 00:00:00 NR 17.3926 126.085 main 385 385 __________P___ -1 17.3926 126.085 4 14 15
1920265N10147 1920 42 WP MM NOT_NAMED 1920-09-27 03:00:00 NR 18.1208 126.312 main 421 422 __________P___ -1 18.1208 126.312 4 16 19
1920265N10147 1920 42 WP MM NOT_NAMED 1920-09-27 06:00:00 NR 18.9356 126.641 main 456 468 __________P___ -1 18.9356 126.641 4 18 23
1920265N10147 1920 42 WP MM NOT_NAMED 1920-09-27 09:00:00 NR 19.7463 127.050 main 525 528 __________P___ -1 19.7463 127.050 4 18 26
1920265N10147 1920 42 WP MM NOT_NAMED 1920-09-27 10:00:00 NR 20.0000 127.200 main 544 544 __________O___ -1 20.0000 127.200 4 16 33
1920265N10147 1920 42 WP MM NOT_NAMED 1920-09-27 12:00:00 NR 20.4265 127.522 main 589 603 __________P___ -1 20.4265 127.522 4 16 38
1920265N10147 1920 42 WP MM NOT_NAMED 1920-09-27 15:00:00 NR 21.0220 128.062 main 673 677 __________P___ -1 21.0220 128.062 4 16 42
1920265N10147 1920 42 WP MM NOT_NAMED 1920-09-27 18:00:00 NR 21.5804 128.621 main 749 758 __________P___ -1 21.5804 128.621 4 15 42
1920265N10147 1920 42 WP MM NOT_NAMED 1920-09-27 21:00:00 NR 22.1206 129.144 main 782 787 __________P___ -1 22.1206 129.144 4 14 41
1920265N10147 1920 42 WP MM NOT_NAMED 1920-09-27 22:00:00 NR 22.3000 129.300 main 793 790 __________O___ -1 22.3000 129.300 4 14 35
1920265N10147 1920 42 WP MM NOT_NAMED 1920-09-28 00:00:00 NR 22.6796 129.565 main 809 806 __________P___ -1 22.6796 129.565 4 13 31
1920265N10147 1920 42 WP MM NOT_NAMED 1920-09-28 03:00:00 NR 23.2435 129.906 main 825 805 __________P___ -1 23.2435 129.906 4 13 27
1920265N10147 1920 42 WP MM NOT_NAMED 1920-09-28 06:00:00 NR 23.7951 130.189 main 805 748 __________P___ -1 23.7951 130.189 4 12 24
1920265N10147 1920 42 WP MM NOT_NAMED 1920-09-28 09:00:00 NR 24.3278 130.428 main 748 726 __________P___ -1 24.3278 130.428 4 11 22
1920265N10147 1920 42 WP MM NOT_NAMED 1920-09-28 10:00:00 NR 24.5000 130.500 main 726 692 __________O___ -1 24.5000 130.500 4 11 22
1920265N10147 1920 42 WP MM NOT_NAMED 1920-09-28 12:00:00 NR 24.8467 130.661 main 692 636 __________P___ -1 24.8467 130.661 4 11 22
1920265N10147 1920 42 WP MM NOT_NAMED 1920-09-28 15:00:00 NR 25.3483 130.872 main 636 581 __________P___ -1 25.3483 130.872 4 10 19
1920265N10147 1920 42 WP MM NOT_NAMED 1920-09-28 18:00:00 NR 25.8222 131.041 main 581 526 __________P___ -1 25.8222 131.041 4 10 16
1920265N10147 1920 42 WP MM NOT_NAMED 1920-09-28 21:00:00 NR 26.2621 131.168 main 526 515 __________P___ -1 26.2621 131.168 4 9 14
1920265N10147 1920 42 WP MM NOT_NAMED 1920-09-28 22:00:00 NR 26.4000 131.200 main 515 482 __________O___ -1 26.4000 131.200 4 8 10
1920265N10147 1920 42 WP MM NOT_NAMED 1920-09-29 00:00:00 NR 26.6617 131.246 main 482 450 __________P___ -1 26.6617 131.246 4 8 6
1920265N10147 1920 42 WP MM NOT_NAMED 1920-09-29 03:00:00 NR 27.0229 131.278 main 450 406 __________P___ -1 27.0229 131.278 4 7 4
1920265N10147 1920 42 WP MM NOT_NAMED 1920-09-29 06:00:00 NR 27.3603 131.285 main 406 372 __________P___ -1 27.3603 131.285 4 7 2
1920265N10147 1920 42 WP MM NOT_NAMED 1920-09-29 09:00:00 NR 27.6894 131.293 main 372 361 __________P___ -1 27.6894 131.293 4 7 0
1920265N10147 1920 42 WP MM NOT_NAMED 1920-09-29 10:00:00 NR 27.8000 131.300 main 361 339 __________O___ -1 27.8000 131.300 4 7 7
1920265N10147 1920 42 WP MM NOT_NAMED 1920-09-29 12:00:00 NR 28.0249 131.326 main 339 297 __________P___ -1 28.0249 131.326 4 7 8
1920265N10147 1920 42 WP MM NOT_NAMED 1920-09-29 15:00:00 NR 28.3707 131.388 main 297 267 __________P___ -1 28.3707 131.388 4 7 10
1920265N10147 1920 42 WP MM NOT_NAMED 1920-09-29 18:00:00 NR 28.7236 131.471 main 267 228 __________P___ -1 28.7236 131.471 4 7 13
1920265N10147 1920 42 WP MM NOT_NAMED 1920-09-29 21:00:00 NR 29.0806 131.567 main 228 218 __________P___ -1 29.0806 131.567 4 7 13
1920265N10147 1920 42 WP MM NOT_NAMED 1920-09-29 22:00:00 NR 29.2000 131.600 main 218 __________O___ -1 29.2000 131.600 4 7 17

Digital Typhoon Data and Search

About IBTrACS Database

This database is a web-friendly format of International Best Track Archive for Climate Stewardship (IBTrACS), a global best track data archive curated by NOAA dating back to 1842.

Updated: 2021-10-27